sensor_id;sensor_type;location;lat;lon;timestamp;temperature;humidity
14409;DHT22;7289;50.706;4.992;2022-11-02T00:01:18;14.00;99.90
14409;DHT22;7289;50.706;4.992;2022-11-02T00:03:48;14.10;99.90
14409;DHT22;7289;50.706;4.992;2022-11-02T00:06:16;14.20;99.90
14409;DHT22;7289;50.706;4.992;2022-11-02T00:08:44;14.20;99.90
14409;DHT22;7289;50.706;4.992;2022-11-02T00:11:13;14.30;99.90
14409;DHT22;7289;50.706;4.992;2022-11-02T00:13:42;14.10;99.90
14409;DHT22;7289;50.706;4.992;2022-11-02T00:16:12;14.30;99.90
14409;DHT22;7289;50.706;4.992;2022-11-02T00:18:42;14.20;99.90
14409;DHT22;7289;50.706;4.992;2022-11-02T00:21:12;14.20;99.90
14409;DHT22;7289;50.706;4.992;2022-11-02T00:23:42;14.20;99.90
14409;DHT22;7289;50.706;4.992;2022-11-02T00:26:11;14.20;99.90
14409;DHT22;7289;50.706;4.992;2022-11-02T00:28:41;14.20;99.90
14409;DHT22;7289;50.706;4.992;2022-11-02T00:31:10;14.20;99.90
14409;DHT22;7289;50.706;4.992;2022-11-02T00:33:38;14.20;99.90
14409;DHT22;7289;50.706;4.992;2022-11-02T00:36:08;14.20;99.90
14409;DHT22;7289;50.706;4.992;2022-11-02T00:38:36;14.10;99.90
14409;DHT22;7289;50.706;4.992;2022-11-02T00:41:04;14.10;99.90
14409;DHT22;7289;50.706;4.992;2022-11-02T00:43:33;14.10;99.90
14409;DHT22;7289;50.706;4.992;2022-11-02T00:46:02;14.00;99.90
14409;DHT22;7289;50.706;4.992;2022-11-02T00:48:31;14.00;99.90
14409;DHT22;7289;50.706;4.992;2022-11-02T00:50:59;14.00;99.90
14409;DHT22;7289;50.706;4.992;2022-11-02T00:53:29;13.90;99.90
14409;DHT22;7289;50.706;4.992;2022-11-02T00:55:57;13.90;99.90
14409;DHT22;7289;50.706;4.992;2022-11-02T00:58:25;13.80;99.90
14409;DHT22;7289;50.706;4.992;2022-11-02T01:00:54;13.70;99.90
14409;DHT22;7289;50.706;4.992;2022-11-02T01:03:26;13.60;99.90
14409;DHT22;7289;50.706;4.992;2022-11-02T01:05:54;13.60;99.90
14409;DHT22;7289;50.706;4.992;2022-11-02T01:08:22;13.50;99.90
14409;DHT22;7289;50.706;4.992;2022-11-02T01:10:50;13.50;99.90
14409;DHT22;7289;50.706;4.992;2022-11-02T01:13:19;13.40;99.90
14409;DHT22;7289;50.706;4.992;2022-11-02T01:15:47;13.30;99.90
14409;DHT22;7289;50.706;4.992;2022-11-02T01:18:15;13.30;99.90
14409;DHT22;7289;50.706;4.992;2022-11-02T01:20:45;13.30;99.90
14409;DHT22;7289;50.706;4.992;2022-11-02T01:23:13;13.30;99.90
14409;DHT22;7289;50.706;4.992;2022-11-02T01:25:44;13.30;99.90
14409;DHT22;7289;50.706;4.992;2022-11-02T01:28:12;13.30;99.90
14409;DHT22;7289;50.706;4.992;2022-11-02T01:30:41;13.30;99.90
14409;DHT22;7289;50.706;4.992;2022-11-02T01:33:11;13.30;99.90
14409;DHT22;7289;50.706;4.992;2022-11-02T01:35:39;13.30;99.90
14409;DHT22;7289;50.706;4.992;2022-11-02T01:38:10;13.20;99.90
14409;DHT22;7289;50.706;4.992;2022-11-02T01:40:38;13.30;99.90
14409;DHT22;7289;50.706;4.992;2022-11-02T01:43:20;13.30;99.90
14409;DHT22;7289;50.706;4.992;2022-11-02T01:45:52;13.20;99.90
14409;DHT22;7289;50.706;4.992;2022-11-02T01:48:27;13.30;99.90
14409;DHT22;7289;50.706;4.992;2022-11-02T01:50:59;13.30;99.90
14409;DHT22;7289;50.706;4.992;2022-11-02T01:53:32;13.10;99.90
14409;DHT22;7289;50.706;4.992;2022-11-02T01:56:01;13.10;99.90
14409;DHT22;7289;50.706;4.992;2022-11-02T01:58:29;13.10;99.90
14409;DHT22;7289;50.706;4.992;2022-11-02T02:01:00;13.10;99.90
14409;DHT22;7289;50.706;4.992;2022-11-02T02:03:30;13.00;99.90
14409;DHT22;7289;50.706;4.992;2022-11-02T02:06:04;12.90;99.90
14409;DHT22;7289;50.706;4.992;2022-11-02T02:08:37;12.90;99.90
14409;DHT22;7289;50.706;4.992;2022-11-02T02:11:24;12.80;99.90
14409;DHT22;7289;50.706;4.992;2022-11-02T02:13:54;12.70;99.90
14409;DHT22;7289;50.706;4.992;2022-11-02T02:16:43;12.60;99.90
14409;DHT22;7289;50.706;4.992;2022-11-02T02:19:27;12.70;99.90
14409;DHT22;7289;50.706;4.992;2022-11-02T02:24:57;12.70;99.90
14409;DHT22;7289;50.706;4.992;2022-11-02T02:27:43;12.60;99.90
14409;DHT22;7289;50.706;4.992;2022-11-02T02:30:13;12.60;99.90
14409;DHT22;7289;50.706;4.992;2022-11-02T02:32:48;12.60;99.90
14409;DHT22;7289;50.706;4.992;2022-11-02T02:35:23;12.50;99.90
14409;DHT22;7289;50.706;4.992;2022-11-02T02:37:56;12.50;99.90
14409;DHT22;7289;50.706;4.992;2022-11-02T02:40:32;12.50;99.90
14409;DHT22;7289;50.706;4.992;2022-11-02T02:43:05;12.60;99.90
14409;DHT22;7289;50.706;4.992;2022-11-02T02:45:36;12.50;99.90
14409;DHT22;7289;50.706;4.992;2022-11-02T02:48:09;12.50;99.90
14409;DHT22;7289;50.706;4.992;2022-11-02T02:50:41;12.40;99.90
14409;DHT22;7289;50.706;4.992;2022-11-02T02:53:13;12.40;99.90
14409;DHT22;7289;50.706;4.992;2022-11-02T02:55:44;12.40;99.90
14409;DHT22;7289;50.706;4.992;2022-11-02T02:58:19;12.40;99.90
14409;DHT22;7289;50.706;4.992;2022-11-02T03:00:48;12.50;99.90
14409;DHT22;7289;50.706;4.992;2022-11-02T03:03:23;12.30;99.90
14409;DHT22;7289;50.706;4.992;2022-11-02T03:06:03;12.30;99.90
14409;DHT22;7289;50.706;4.992;2022-11-02T03:08:35;12.30;99.90
14409;DHT22;7289;50.706;4.992;2022-11-02T03:11:11;12.30;99.90
14409;DHT22;7289;50.706;4.992;2022-11-02T03:14:00;12.30;99.90
14409;DHT22;7289;50.706;4.992;2022-11-02T03:16:41;12.30;99.90
14409;DHT22;7289;50.706;4.992;2022-11-02T03:19:19;12.20;99.90
14409;DHT22;7289;50.706;4.992;2022-11-02T03:21:57;12.20;99.90
14409;DHT22;7289;50.706;4.992;2022-11-02T03:24:32;12.20;99.90
14409;DHT22;7289;50.706;4.992;2022-11-02T03:27:14;12.20;99.90
14409;DHT22;7289;50.706;4.992;2022-11-02T03:29:52;12.10;99.90
14409;DHT22;7289;50.706;4.992;2022-11-02T03:32:27;12.20;99.90
14409;DHT22;7289;50.706;4.992;2022-11-02T03:35:01;12.10;99.90
14409;DHT22;7289;50.706;4.992;2022-11-02T03:37:34;12.10;99.90
14409;DHT22;7289;50.706;4.992;2022-11-02T03:40:12;12.10;99.90
14409;DHT22;7289;50.706;4.992;2022-11-02T03:42:43;12.10;99.90
14409;DHT22;7289;50.706;4.992;2022-11-02T03:45:16;12.10;99.90
14409;DHT22;7289;50.706;4.992;2022-11-02T03:47:50;12.10;99.90
14409;DHT22;7289;50.706;4.992;2022-11-02T03:50:21;12.10;99.90
14409;DHT22;7289;50.706;4.992;2022-11-02T03:52:55;12.00;99.90
14409;DHT22;7289;50.706;4.992;2022-11-02T03:55:29;12.00;99.90
14409;DHT22;7289;50.706;4.992;2022-11-02T03:57:58;12.00;99.90
14409;DHT22;7289;50.706;4.992;2022-11-02T04:00:32;12.10;99.90
14409;DHT22;7289;50.706;4.992;2022-11-02T04:03:07;12.10;99.90
14409;DHT22;7289;50.706;4.992;2022-11-02T04:05:41;12.10;99.90
14409;DHT22;7289;50.706;4.992;2022-11-02T04:08:20;12.00;99.90
14409;DHT22;7289;50.706;4.992;2022-11-02T04:10:54;12.00;99.90
14409;DHT22;7289;50.706;4.992;2022-11-02T04:13:42;12.10;99.90
14409;DHT22;7289;50.706;4.992;2022-11-02T04:16:33;12.10;99.90
14409;DHT22;7289;50.706;4.992;2022-11-02T04:19:07;12.10;99.90
14409;DHT22;7289;50.706;4.992;2022-11-02T04:21:57;12.10;99.90
14409;DHT22;7289;50.706;4.992;2022-11-02T04:24:46;12.10;99.90
14409;DHT22;7289;50.706;4.992;2022-11-02T04:27:32;12.10;99.90
14409;DHT22;7289;50.706;4.992;2022-11-02T04:30:02;12.10;99.90
14409;DHT22;7289;50.706;4.992;2022-11-02T04:32:38;12.20;99.90
14409;DHT22;7289;50.706;4.992;2022-11-02T04:35:26;12.30;99.90
14409;DHT22;7289;50.706;4.992;2022-11-02T04:37:55;12.40;99.90
14409;DHT22;7289;50.706;4.992;2022-11-02T04:40:43;12.50;99.90
14409;DHT22;7289;50.706;4.992;2022-11-02T04:43:11;12.60;99.90
14409;DHT22;7289;50.706;4.992;2022-11-02T04:45:40;12.60;99.90
14409;DHT22;7289;50.706;4.992;2022-11-02T04:48:10;12.60;99.90
14409;DHT22;7289;50.706;4.992;2022-11-02T04:50:38;12.60;99.90
14409;DHT22;7289;50.706;4.992;2022-11-02T04:53:08;12.60;99.90
14409;DHT22;7289;50.706;4.992;2022-11-02T04:55:38;12.70;99.90
14409;DHT22;7289;50.706;4.992;2022-11-02T04:58:06;12.80;99.90
14409;DHT22;7289;50.706;4.992;2022-11-02T05:00:35;12.80;99.90
14409;DHT22;7289;50.706;4.992;2022-11-02T05:03:04;12.60;99.90
14409;DHT22;7289;50.706;4.992;2022-11-02T05:05:41;12.60;99.90
14409;DHT22;7289;50.706;4.992;2022-11-02T05:08:09;12.50;99.90
14409;DHT22;7289;50.706;4.992;2022-11-02T05:10:38;12.50;99.90
14409;DHT22;7289;50.706;4.992;2022-11-02T05:13:06;12.50;99.90
14409;DHT22;7289;50.706;4.992;2022-11-02T05:15:37;12.50;99.90
14409;DHT22;7289;50.706;4.992;2022-11-02T05:18:06;12.50;99.90
14409;DHT22;7289;50.706;4.992;2022-11-02T05:20:38;12.60;99.90
14409;DHT22;7289;50.706;4.992;2022-11-02T05:23:08;12.60;99.90
14409;DHT22;7289;50.706;4.992;2022-11-02T05:25:36;12.40;99.90
14409;DHT22;7289;50.706;4.992;2022-11-02T05:28:05;12.50;99.90
14409;DHT22;7289;50.706;4.992;2022-11-02T05:30:33;12.40;99.90
14409;DHT22;7289;50.706;4.992;2022-11-02T05:33:02;12.20;99.90
14409;DHT22;7289;50.706;4.992;2022-11-02T05:35:31;12.20;99.90
14409;DHT22;7289;50.706;4.992;2022-11-02T05:37:59;12.10;99.90
14409;DHT22;7289;50.706;4.992;2022-11-02T05:40:29;12.10;99.90
14409;DHT22;7289;50.706;4.992;2022-11-02T05:42:58;12.10;99.90
14409;DHT22;7289;50.706;4.992;2022-11-02T05:45:27;12.10;99.90
14409;DHT22;7289;50.706;4.992;2022-11-02T05:47:56;12.00;99.90
14409;DHT22;7289;50.706;4.992;2022-11-02T05:50:26;12.00;99.90
14409;DHT22;7289;50.706;4.992;2022-11-02T05:52:55;12.00;99.90
14409;DHT22;7289;50.706;4.992;2022-11-02T05:55:23;11.90;99.90
14409;DHT22;7289;50.706;4.992;2022-11-02T05:57:54;11.90;99.90
14409;DHT22;7289;50.706;4.992;2022-11-02T06:00:22;11.80;99.90
14409;DHT22;7289;50.706;4.992;2022-11-02T06:02:55;11.70;99.90
14409;DHT22;7289;50.706;4.992;2022-11-02T06:05:25;11.70;99.90
14409;DHT22;7289;50.706;4.992;2022-11-02T06:07:57;11.70;99.90
14409;DHT22;7289;50.706;4.992;2022-11-02T06:10:25;11.70;99.90
14409;DHT22;7289;50.706;4.992;2022-11-02T06:12:56;11.70;99.90
14409;DHT22;7289;50.706;4.992;2022-11-02T06:15:24;11.70;99.90
14409;DHT22;7289;50.706;4.992;2022-11-02T06:17:53;11.70;99.90
14409;DHT22;7289;50.706;4.992;2022-11-02T06:20:21;11.80;99.90
14409;DHT22;7289;50.706;4.992;2022-11-02T06:22:50;11.70;99.90
14409;DHT22;7289;50.706;4.992;2022-11-02T06:25:18;11.60;99.90
14409;DHT22;7289;50.706;4.992;2022-11-02T06:27:52;11.70;99.90
14409;DHT22;7289;50.706;4.992;2022-11-02T06:30:26;11.60;99.90
14409;DHT22;7289;50.706;4.992;2022-11-02T06:32:54;11.60;99.90
14409;DHT22;7289;50.706;4.992;2022-11-02T06:35:26;11.60;99.90
14409;DHT22;7289;50.706;4.992;2022-11-02T06:37:54;11.50;99.90
14409;DHT22;7289;50.706;4.992;2022-11-02T06:40:22;11.40;99.90
14409;DHT22;7289;50.706;4.992;2022-11-02T06:42:54;11.50;99.90
14409;DHT22;7289;50.706;4.992;2022-11-02T06:45:43;11.40;99.90
14409;DHT22;7289;50.706;4.992;2022-11-02T06:48:12;11.30;99.90
14409;DHT22;7289;50.706;4.992;2022-11-02T06:50:41;11.40;99.90
14409;DHT22;7289;50.706;4.992;2022-11-02T06:53:09;11.30;99.90
14409;DHT22;7289;50.706;4.992;2022-11-02T06:55:37;11.30;99.90
14409;DHT22;7289;50.706;4.992;2022-11-02T06:58:07;11.20;99.90
14409;DHT22;7289;50.706;4.992;2022-11-02T07:00:35;11.20;99.90
14409;DHT22;7289;50.706;4.992;2022-11-02T07:03:06;11.10;99.90
14409;DHT22;7289;50.706;4.992;2022-11-02T07:05:36;11.20;99.90
14409;DHT22;7289;50.706;4.992;2022-11-02T07:08:05;11.20;99.90
14409;DHT22;7289;50.706;4.992;2022-11-02T07:10:33;11.20;99.90
14409;DHT22;7289;50.706;4.992;2022-11-02T07:13:02;11.20;99.90
14409;DHT22;7289;50.706;4.992;2022-11-02T07:15:31;11.20;99.90
14409;DHT22;7289;50.706;4.992;2022-11-02T07:18:01;11.20;99.90
14409;DHT22;7289;50.706;4.992;2022-11-02T07:20:31;11.20;99.90
14409;DHT22;7289;50.706;4.992;2022-11-02T07:23:00;11.20;99.90
14409;DHT22;7289;50.706;4.992;2022-11-02T07:25:30;11.30;99.90
14409;DHT22;7289;50.706;4.992;2022-11-02T07:27:59;11.40;99.90
14409;DHT22;7289;50.706;4.992;2022-11-02T07:30:30;11.30;99.90
14409;DHT22;7289;50.706;4.992;2022-11-02T07:32:59;11.40;99.90
14409;DHT22;7289;50.706;4.992;2022-11-02T07:35:27;11.40;99.90
14409;DHT22;7289;50.706;4.992;2022-11-02T07:37:58;11.40;99.90
14409;DHT22;7289;50.706;4.992;2022-11-02T07:40:28;11.40;99.90
14409;DHT22;7289;50.706;4.992;2022-11-02T07:42:57;11.50;99.90
14409;DHT22;7289;50.706;4.992;2022-11-02T07:45:35;11.50;99.90
14409;DHT22;7289;50.706;4.992;2022-11-02T07:48:03;11.50;99.90
14409;DHT22;7289;50.706;4.992;2022-11-02T07:50:32;11.50;99.90
14409;DHT22;7289;50.706;4.992;2022-11-02T07:53:01;11.60;99.90
14409;DHT22;7289;50.706;4.992;2022-11-02T07:55:31;11.60;99.90
14409;DHT22;7289;50.706;4.992;2022-11-02T07:58:01;11.60;99.90
14409;DHT22;7289;50.706;4.992;2022-11-02T08:00:31;11.60;99.90
14409;DHT22;7289;50.706;4.992;2022-11-02T08:03:02;11.70;99.90
14409;DHT22;7289;50.706;4.992;2022-11-02T08:05:33;11.80;99.90
14409;DHT22;7289;50.706;4.992;2022-11-02T08:08:05;11.80;99.90
14409;DHT22;7289;50.706;4.992;2022-11-02T08:10:35;11.80;99.90
14409;DHT22;7289;50.706;4.992;2022-11-02T08:13:07;11.80;99.90
14409;DHT22;7289;50.706;4.992;2022-11-02T08:15:35;11.90;99.90
14409;DHT22;7289;50.706;4.992;2022-11-02T08:18:05;12.00;99.90
14409;DHT22;7289;50.706;4.992;2022-11-02T08:20:35;12.00;99.90
14409;DHT22;7289;50.706;4.992;2022-11-02T08:23:05;12.10;99.90
14409;DHT22;7289;50.706;4.992;2022-11-02T08:25:34;12.10;99.90
14409;DHT22;7289;50.706;4.992;2022-11-02T08:28:04;12.20;99.90
14409;DHT22;7289;50.706;4.992;2022-11-02T08:30:34;12.20;99.90
14409;DHT22;7289;50.706;4.992;2022-11-02T08:33:03;12.20;99.90
14409;DHT22;7289;50.706;4.992;2022-11-02T08:35:32;12.30;99.90
14409;DHT22;7289;50.706;4.992;2022-11-02T08:38:05;12.30;99.90
14409;DHT22;7289;50.706;4.992;2022-11-02T08:40:34;12.40;99.90
14409;DHT22;7289;50.706;4.992;2022-11-02T08:43:05;12.40;99.90
14409;DHT22;7289;50.706;4.992;2022-11-02T08:45:34;12.50;99.90
14409;DHT22;7289;50.706;4.992;2022-11-02T08:48:24;12.60;99.90
14409;DHT22;7289;50.706;4.992;2022-11-02T08:50:52;12.60;99.90
14409;DHT22;7289;50.706;4.992;2022-11-02T08:53:23;12.60;99.90
14409;DHT22;7289;50.706;4.992;2022-11-02T08:55:51;12.60;99.90
14409;DHT22;7289;50.706;4.992;2022-11-02T08:58:19;12.70;99.90
14409;DHT22;7289;50.706;4.992;2022-11-02T09:00:48;12.80;99.90
14409;DHT22;7289;50.706;4.992;2022-11-02T09:03:16;12.80;99.90
14409;DHT22;7289;50.706;4.992;2022-11-02T09:05:56;12.90;99.90
14409;DHT22;7289;50.706;4.992;2022-11-02T09:08:26;12.90;99.90
14409;DHT22;7289;50.706;4.992;2022-11-02T09:10:58;12.90;99.90
14409;DHT22;7289;50.706;4.992;2022-11-02T09:13:27;13.10;99.90
14409;DHT22;7289;50.706;4.992;2022-11-02T09:15:57;13.10;99.90
14409;DHT22;7289;50.706;4.992;2022-11-02T09:18:26;13.10;99.90
14409;DHT22;7289;50.706;4.992;2022-11-02T09:20:54;13.10;99.90
14409;DHT22;7289;50.706;4.992;2022-11-02T09:23:23;13.20;99.90
14409;DHT22;7289;50.706;4.992;2022-11-02T09:25:52;13.20;99.90
14409;DHT22;7289;50.706;4.992;2022-11-02T09:28:21;13.40;99.90
14409;DHT22;7289;50.706;4.992;2022-11-02T09:30:49;13.40;99.90
14409;DHT22;7289;50.706;4.992;2022-11-02T09:33:18;13.50;99.90
14409;DHT22;7289;50.706;4.992;2022-11-02T09:35:47;13.60;99.90
14409;DHT22;7289;50.706;4.992;2022-11-02T09:38:16;13.60;99.90
14409;DHT22;7289;50.706;4.992;2022-11-02T09:40:49;13.70;99.90
14409;DHT22;7289;50.706;4.992;2022-11-02T09:43:32;13.70;99.90
14409;DHT22;7289;50.706;4.992;2022-11-02T09:46:05;13.80;99.90
14409;DHT22;7289;50.706;4.992;2022-11-02T09:48:38;13.90;99.90
14409;DHT22;7289;50.706;4.992;2022-11-02T09:51:10;14.00;99.90
14409;DHT22;7289;50.706;4.992;2022-11-02T09:53:45;14.00;99.90
14409;DHT22;7289;50.706;4.992;2022-11-02T09:56:16;14.10;99.90
14409;DHT22;7289;50.706;4.992;2022-11-02T09:58:53;14.10;99.90
14409;DHT22;7289;50.706;4.992;2022-11-02T10:01:31;14.20;99.90
14409;DHT22;7289;50.706;4.992;2022-11-02T10:07:09;14.30;99.90
14409;DHT22;7289;50.706;4.992;2022-11-02T10:09:45;14.50;99.90
14409;DHT22;7289;50.706;4.992;2022-11-02T10:12:22;14.40;99.90
14409;DHT22;7289;50.706;4.992;2022-11-02T10:14:58;14.30;99.90
14409;DHT22;7289;50.706;4.992;2022-11-02T10:17:31;14.40;99.90
14409;DHT22;7289;50.706;4.992;2022-11-02T10:20:05;14.50;99.90
14409;DHT22;7289;50.706;4.992;2022-11-02T10:22:38;14.60;99.90
14409;DHT22;7289;50.706;4.992;2022-11-02T10:25:12;14.80;99.90
14409;DHT22;7289;50.706;4.992;2022-11-02T10:27:44;14.80;99.70
14409;DHT22;7289;50.706;4.992;2022-11-02T10:30:18;14.80;99.60
14409;DHT22;7289;50.706;4.992;2022-11-02T10:32:49;14.90;99.60
14409;DHT22;7289;50.706;4.992;2022-11-02T10:35:22;14.90;99.50
14409;DHT22;7289;50.706;4.992;2022-11-02T10:38:16;15.00;99.60
14409;DHT22;7289;50.706;4.992;2022-11-02T10:40:57;15.10;99.40
14409;DHT22;7289;50.706;4.992;2022-11-02T10:43:37;15.20;99.10
14409;DHT22;7289;50.706;4.992;2022-11-02T10:46:30;15.30;99.00
14409;DHT22;7289;50.706;4.992;2022-11-02T10:49:09;15.40;98.60
14409;DHT22;7289;50.706;4.992;2022-11-02T10:51:40;15.40;98.80
14409;DHT22;7289;50.706;4.992;2022-11-02T10:54:11;15.40;98.70
14409;DHT22;7289;50.706;4.992;2022-11-02T10:56:55;15.50;98.40
14409;DHT22;7289;50.706;4.992;2022-11-02T10:59:23;15.60;98.50
14409;DHT22;7289;50.706;4.992;2022-11-02T11:02:10;15.60;98.40
14409;DHT22;7289;50.706;4.992;2022-11-02T11:04:40;15.60;98.10
14409;DHT22;7289;50.706;4.992;2022-11-02T11:07:14;15.70;97.90
14409;DHT22;7289;50.706;4.992;2022-11-02T11:09:48;15.70;97.60
14409;DHT22;7289;50.706;4.992;2022-11-02T11:12:20;15.90;97.40
14409;DHT22;7289;50.706;4.992;2022-11-02T11:14:54;15.90;97.30
14409;DHT22;7289;50.706;4.992;2022-11-02T11:17:44;15.90;97.40
14409;DHT22;7289;50.706;4.992;2022-11-02T11:20:34;15.90;97.30
14409;DHT22;7289;50.706;4.992;2022-11-02T11:23:16;16.00;97.60
14409;DHT22;7289;50.706;4.992;2022-11-02T11:25:59;16.10;97.00
14409;DHT22;7289;50.706;4.992;2022-11-02T11:28:30;16.20;96.60
14409;DHT22;7289;50.706;4.992;2022-11-02T11:31:13;16.40;96.20
14409;DHT22;7289;50.706;4.992;2022-11-02T11:33:50;16.50;96.00
14409;DHT22;7289;50.706;4.992;2022-11-02T11:36:22;16.80;95.60
14409;DHT22;7289;50.706;4.992;2022-11-02T11:38:53;16.90;95.40
14409;DHT22;7289;50.706;4.992;2022-11-02T11:41:23;16.90;95.60
14409;DHT22;7289;50.706;4.992;2022-11-02T11:43:52;16.90;95.40
14409;DHT22;7289;50.706;4.992;2022-11-02T11:46:21;16.80;95.50
14409;DHT22;7289;50.706;4.992;2022-11-02T11:48:52;16.70;95.90
14409;DHT22;7289;50.706;4.992;2022-11-02T11:51:30;16.60;95.90
14409;DHT22;7289;50.706;4.992;2022-11-02T11:54:21;16.70;95.90
14409;DHT22;7289;50.706;4.992;2022-11-02T11:56:53;16.90;95.90
14409;DHT22;7289;50.706;4.992;2022-11-02T11:59:24;17.00;95.10
14409;DHT22;7289;50.706;4.992;2022-11-02T12:01:56;17.20;94.80
14409;DHT22;7289;50.706;4.992;2022-11-02T12:04:28;17.50;94.40
14409;DHT22;7289;50.706;4.992;2022-11-02T12:09:56;17.80;93.00
14409;DHT22;7289;50.706;4.992;2022-11-02T12:12:35;17.70;93.40
14409;DHT22;7289;50.706;4.992;2022-11-02T12:15:13;17.70;93.50
14409;DHT22;7289;50.706;4.992;2022-11-02T12:17:55;17.70;93.50
14409;DHT22;7289;50.706;4.992;2022-11-02T12:20:49;17.70;93.20
14409;DHT22;7289;50.706;4.992;2022-11-02T12:23:31;17.60;92.90
14409;DHT22;7289;50.706;4.992;2022-11-02T12:26:15;17.40;92.90
14409;DHT22;7289;50.706;4.992;2022-11-02T12:28:55;17.00;93.60
14409;DHT22;7289;50.706;4.992;2022-11-02T12:31:31;16.90;93.90
14409;DHT22;7289;50.706;4.992;2022-11-02T12:34:16;16.90;93.30
14409;DHT22;7289;50.706;4.992;2022-11-02T12:36:58;16.90;93.40
14409;DHT22;7289;50.706;4.992;2022-11-02T12:40:02;16.80;93.30
14409;DHT22;7289;50.706;4.992;2022-11-02T12:42:38;16.70;93.40
14409;DHT22;7289;50.706;4.992;2022-11-02T12:45:21;16.60;93.50
14409;DHT22;7289;50.706;4.992;2022-11-02T12:47:54;16.60;93.50
14409;DHT22;7289;50.706;4.992;2022-11-02T12:50:30;16.50;93.20
14409;DHT22;7289;50.706;4.992;2022-11-02T12:53:23;16.50;93.10
14409;DHT22;7289;50.706;4.992;2022-11-02T12:55:59;16.60;93.30
14409;DHT22;7289;50.706;4.992;2022-11-02T12:58:30;16.60;92.60
14409;DHT22;7289;50.706;4.992;2022-11-02T13:01:04;16.70;93.00
14409;DHT22;7289;50.706;4.992;2022-11-02T13:03:46;16.60;93.50
14409;DHT22;7289;50.706;4.992;2022-11-02T13:06:18;16.70;93.50
14409;DHT22;7289;50.706;4.992;2022-11-02T13:08:52;16.70;93.30
14409;DHT22;7289;50.706;4.992;2022-11-02T13:11:24;16.80;93.20
14409;DHT22;7289;50.706;4.992;2022-11-02T13:13:57;16.80;92.90
14409;DHT22;7289;50.706;4.992;2022-11-02T13:16:35;16.80;92.50
14409;DHT22;7289;50.706;4.992;2022-11-02T13:19:11;16.80;92.70
14409;DHT22;7289;50.706;4.992;2022-11-02T13:21:45;16.80;92.60
14409;DHT22;7289;50.706;4.992;2022-11-02T13:24:19;16.80;91.70
14409;DHT22;7289;50.706;4.992;2022-11-02T13:26:54;16.80;91.40
14409;DHT22;7289;50.706;4.992;2022-11-02T13:29:32;16.80;91.50
14409;DHT22;7289;50.706;4.992;2022-11-02T13:32:05;16.90;91.60
14409;DHT22;7289;50.706;4.992;2022-11-02T13:34:39;16.70;91.10
14409;DHT22;7289;50.706;4.992;2022-11-02T13:37:12;16.60;91.00
14409;DHT22;7289;50.706;4.992;2022-11-02T13:39:46;16.60;91.20
14409;DHT22;7289;50.706;4.992;2022-11-02T13:42:40;16.50;91.50
14409;DHT22;7289;50.706;4.992;2022-11-02T13:45:29;16.40;91.30
14409;DHT22;7289;50.706;4.992;2022-11-02T13:51:05;16.30;91.50
14409;DHT22;7289;50.706;4.992;2022-11-02T13:53:37;16.10;91.40
14409;DHT22;7289;50.706;4.992;2022-11-02T13:56:10;16.10;91.40
14409;DHT22;7289;50.706;4.992;2022-11-02T13:58:45;16.00;91.90
14409;DHT22;7289;50.706;4.992;2022-11-02T14:01:16;16.00;91.90
14409;DHT22;7289;50.706;4.992;2022-11-02T14:03:48;16.10;91.80
14409;DHT22;7289;50.706;4.992;2022-11-02T14:06:22;15.90;91.60
14409;DHT22;7289;50.706;4.992;2022-11-02T14:08:55;15.90;91.70
14409;DHT22;7289;50.706;4.992;2022-11-02T14:11:34;16.00;91.50
14409;DHT22;7289;50.706;4.992;2022-11-02T14:14:32;16.00;91.10
14409;DHT22;7289;50.706;4.992;2022-11-02T14:17:11;16.00;91.30
14409;DHT22;7289;50.706;4.992;2022-11-02T14:19:51;15.90;91.30
14409;DHT22;7289;50.706;4.992;2022-11-02T14:22:21;16.00;91.50
14409;DHT22;7289;50.706;4.992;2022-11-02T14:27:37;15.90;91.70
14409;DHT22;7289;50.706;4.992;2022-11-02T14:30:39;15.90;91.50
14409;DHT22;7289;50.706;4.992;2022-11-02T14:33:34;15.90;92.00
14409;DHT22;7289;50.706;4.992;2022-11-02T14:36:09;15.80;91.90
14409;DHT22;7289;50.706;4.992;2022-11-02T14:38:50;15.70;91.60
14409;DHT22;7289;50.706;4.992;2022-11-02T14:41:45;15.70;91.70
14409;DHT22;7289;50.706;4.992;2022-11-02T14:44:33;15.70;91.70
14409;DHT22;7289;50.706;4.992;2022-11-02T14:47:07;15.60;92.00
14409;DHT22;7289;50.706;4.992;2022-11-02T14:49:39;15.60;92.00
14409;DHT22;7289;50.706;4.992;2022-11-02T14:52:22;15.60;92.10
14409;DHT22;7289;50.706;4.992;2022-11-02T14:54:54;15.40;91.90
14409;DHT22;7289;50.706;4.992;2022-11-02T14:57:28;15.40;91.90
14409;DHT22;7289;50.706;4.992;2022-11-02T15:00:01;15.20;91.70
14409;DHT22;7289;50.706;4.992;2022-11-02T15:02:34;15.20;91.80
14409;DHT22;7289;50.706;4.992;2022-11-02T15:05:20;15.10;91.90
14409;DHT22;7289;50.706;4.992;2022-11-02T15:07:52;15.20;92.30
14409;DHT22;7289;50.706;4.992;2022-11-02T15:10:44;15.10;92.40
14409;DHT22;7289;50.706;4.992;2022-11-02T15:13:44;15.00;92.30
14409;DHT22;7289;50.706;4.992;2022-11-02T15:16:21;15.00;92.50
14409;DHT22;7289;50.706;4.992;2022-11-02T15:18:50;15.00;92.30
14409;DHT22;7289;50.706;4.992;2022-11-02T15:21:26;15.00;92.50
14409;DHT22;7289;50.706;4.992;2022-11-02T15:26:49;14.90;92.90
14409;DHT22;7289;50.706;4.992;2022-11-02T15:29:32;14.80;93.00
14409;DHT22;7289;50.706;4.992;2022-11-02T15:32:07;14.80;93.00
14409;DHT22;7289;50.706;4.992;2022-11-02T15:34:48;14.70;93.10
14409;DHT22;7289;50.706;4.992;2022-11-02T15:37:19;14.60;92.90
14409;DHT22;7289;50.706;4.992;2022-11-02T15:39:50;14.50;93.40
14409;DHT22;7289;50.706;4.992;2022-11-02T15:42:27;14.40;93.50
14409;DHT22;7289;50.706;4.992;2022-11-02T15:45:20;14.40;93.50
14409;DHT22;7289;50.706;4.992;2022-11-02T15:48:25;14.30;93.60
14409;DHT22;7289;50.706;4.992;2022-11-02T15:51:00;14.20;94.00
14409;DHT22;7289;50.706;4.992;2022-11-02T15:53:49;14.00;94.30
14409;DHT22;7289;50.706;4.992;2022-11-02T15:56:34;14.00;94.60
14409;DHT22;7289;50.706;4.992;2022-11-02T16:02:21;13.80;94.60
14409;DHT22;7289;50.706;4.992;2022-11-02T16:04:54;13.80;94.80
14409;DHT22;7289;50.706;4.992;2022-11-02T16:07:22;13.60;95.10
14409;DHT22;7289;50.706;4.992;2022-11-02T16:10:11;13.60;95.20
14409;DHT22;7289;50.706;4.992;2022-11-02T16:12:39;13.40;95.50
14409;DHT22;7289;50.706;4.992;2022-11-02T16:15:11;13.30;95.80
14409;DHT22;7289;50.706;4.992;2022-11-02T16:17:40;13.20;95.90
14409;DHT22;7289;50.706;4.992;2022-11-02T16:20:15;13.10;96.10
14409;DHT22;7289;50.706;4.992;2022-11-02T16:22:46;12.90;96.40
14409;DHT22;7289;50.706;4.992;2022-11-02T16:25:19;12.90;96.50
14409;DHT22;7289;50.706;4.992;2022-11-02T16:27:48;12.80;96.80
14409;DHT22;7289;50.706;4.992;2022-11-02T16:30:18;12.70;96.90
14409;DHT22;7289;50.706;4.992;2022-11-02T16:32:49;12.60;97.00
14409;DHT22;7289;50.706;4.992;2022-11-02T16:35:20;12.60;97.10
14409;DHT22;7289;50.706;4.992;2022-11-02T16:37:48;12.50;97.30
14409;DHT22;7289;50.706;4.992;2022-11-02T16:40:18;12.40;97.50
14409;DHT22;7289;50.706;4.992;2022-11-02T16:42:48;12.30;97.60
14409;DHT22;7289;50.706;4.992;2022-11-02T16:45:32;12.30;97.80
14409;DHT22;7289;50.706;4.992;2022-11-02T16:48:20;12.20;98.20